Time;durP1;ratioP1;P1;durP2;ratioP2;P2;SDS_P1;SDS_P2;PMS_P1;PMS_P2;Temp;Humidity;BMP_temperature;BMP_pressure;BME280_temperature;BME280_humidity;BME280_pressure;Samples;Min_cycle;Max_cycle;Signal;HPM_P1;HPM_P2
2021/11/20 00:04:30;;;;;;;19.50;12.18;;;;;;;9.06;100.00;99463.57;4166072;84;21799;-82
2021/11/20 00:10:35;;;;;;;27.32;13.45;;;;;;;9.10;98.88;99474.00;4162013;84;21012;-82
2021/11/20 00:16:40;;;;;;;18.17;11.85;;;;;;;9.13;99.85;99467.05;4166627;84;21047;-83
2021/11/20 00:22:44;;;;;;;18.25;10.93;;;;;;;9.12;99.60;99484.56;4170375;84;21078;-83
2021/11/20 00:35:06;;;;;;;15.90;11.03;;;;;;;9.15;98.74;99479.77;4171719;84;21008;-84
2021/11/20 00:41:15;;;;;;;17.05;10.38;;;;;;;9.13;98.46;99476.61;4166436;84;21907;-81
2021/11/20 00:47:18;;;;;;;18.82;10.93;;;;;;;9.13;97.61;99471.92;4168124;84;21079;-81
2021/11/20 00:53:20;;;;;;;20.40;11.38;;;;;;;9.15;97.60;99453.25;4165094;84;21555;-83
2021/11/20 00:59:23;;;;;;;15.95;10.03;;;;;;;9.16;97.86;99458.92;4167203;84;21004;-83
2021/11/20 01:05:25;;;;;;;16.75;10.53;;;;;;;9.17;97.27;99441.97;4167262;84;21060;-82
2021/11/20 01:11:38;;;;;;;16.37;8.18;;;;;;;9.17;97.05;99452.33;4165336;84;21531;-81
2021/11/20 01:17:40;;;;;;;13.60;9.35;;;;;;;9.20;94.36;99454.35;4170450;84;21051;-82
2021/11/20 01:23:45;;;;;;;13.50;8.38;;;;;;;9.19;96.42;99439.69;4163858;84;21551;-83
2021/11/20 01:29:48;;;;;;;13.55;8.93;;;;;;;9.16;96.05;99437.07;4166954;84;21059;-82
2021/11/20 01:35:51;;;;;;;13.88;8.75;;;;;;;9.16;96.04;99436.30;4171572;84;21087;-82
2021/11/20 01:42:01;;;;;;;12.90;8.23;;;;;;;9.15;95.70;99425.94;4169065;84;21049;-83
2021/11/20 01:48:16;;;;;;;13.72;8.73;;;;;;;9.19;95.39;99427.39;4165168;84;20992;-82
2021/11/20 01:54:45;;;;;;;14.18;8.35;;;;;;;9.19;94.71;99419.20;4150472;84;21040;-83
2021/11/20 02:01:03;;;;;;;14.15;8.45;;;;;;;9.20;94.79;99405.75;4162468;84;21014;-81
2021/11/20 02:07:27;;;;;;;14.60;6.73;;;;;;;9.20;94.00;99404.38;4164077;84;21072;-82
2021/11/20 02:13:32;;;;;;;12.75;6.72;;;;;;;9.18;93.47;99404.73;4163677;84;21077;-83
2021/11/20 02:19:40;;;;;;;11.50;7.23;;;;;;;9.16;93.16;99391.23;4106239;85;21168;-81
2021/11/20 02:25:42;;;;;;;9.05;6.80;;;;;;;9.14;93.96;99393.52;4167425;84;21605;-83
2021/11/20 02:31:59;;;;;;;12.78;7.35;;;;;;;9.15;93.54;99384.16;4166697;84;21014;-82
2021/11/20 02:38:07;;;;;;;12.95;5.72;;;;;;;9.14;93.42;99377.94;4165254;84;21491;-83
2021/11/20 02:44:08;;;;;;;9.45;6.20;;;;;;;9.15;93.06;99375.97;4163847;84;21093;-82
2021/11/20 02:50:11;;;;;;;11.33;5.95;;;;;;;9.14;92.74;99373.03;4105624;85;21054;-83
2021/11/20 02:56:18;;;;;;;9.10;5.85;;;;;;;9.14;92.57;99383.96;4166314;84;21013;-80
2021/11/20 03:02:19;;;;;;;8.98;6.00;;;;;;;9.15;91.41;99384.97;4164698;84;21029;-82
2021/11/20 03:08:21;;;;;;;11.40;6.00;;;;;;;9.14;92.16;99374.40;4144126;84;21041;-83
2021/11/20 03:14:25;;;;;;;11.45;6.05;;;;;;;9.11;92.13;99378.61;4130543;84;22346;-82
2021/11/20 03:20:27;;;;;;;9.08;5.80;;;;;;;9.12;92.15;99380.78;4138511;84;21063;-82
2021/11/20 03:26:29;;;;;;;9.73;5.78;;;;;;;9.12;91.92;99382.95;4137811;84;21074;-82
2021/11/20 03:32:31;;;;;;;8.38;5.78;;;;;;;9.15;91.89;99382.80;4134536;84;21066;-83
2021/11/20 03:38:34;;;;;;;7.30;5.15;;;;;;;9.15;91.64;99391.00;4087019;86;21076;-81
2021/11/20 03:44:37;;;;;;;12.23;6.40;;;;;;;9.15;91.21;99408.75;4016130;87;21076;-83
2021/11/20 03:50:42;;;;;;;11.33;5.90;;;;;;;9.14;91.50;99400.34;3998013;87;21017;-82
2021/11/20 03:56:43;;;;;;;11.28;5.72;;;;;;;9.12;91.46;99408.89;4018878;87;21111;-81
2021/11/20 04:02:47;;;;;;;11.45;5.97;;;;;;;9.14;91.53;99416.73;4015748;87;21095;-82
2021/11/20 04:08:52;;;;;;;7.95;5.60;;;;;;;9.14;91.26;99432.56;4018630;87;21020;-83
2021/11/20 04:14:54;;;;;;;11.78;6.20;;;;;;;9.15;90.88;99442.89;4059369;85;21131;-81
2021/11/20 04:20:55;;;;;;;11.97;6.85;;;;;;;9.12;91.44;99437.58;4090323;85;21474;-81
2021/11/20 04:26:57;;;;;;;14.30;6.50;;;;;;;9.11;91.36;99451.59;4094243;85;20985;-82
2021/11/20 04:33:00;;;;;;;10.15;6.47;;;;;;;9.09;91.56;99453.87;4108199;85;21114;-81
2021/11/20 04:39:05;;;;;;;12.28;7.62;;;;;;;9.05;91.67;99446.17;4165751;84;21514;-82
2021/11/20 04:45:12;;;;;;;10.53;7.65;;;;;;;9.00;91.80;99448.61;4146294;83;36193;-82
2021/11/20 04:51:16;;;;;;;13.68;8.58;;;;;;;8.96;92.04;99469.55;4200390;83;21434;-82
2021/11/20 04:57:17;;;;;;;19.05;9.40;;;;;;;8.87;92.34;99445.73;4198313;83;21052;-81
2021/11/20 05:03:21;;;;;;;13.08;8.58;;;;;;;8.81;92.54;99447.16;4199645;83;21575;-81
2021/11/20 05:09:23;;;;;;;12.73;8.55;;;;;;;8.74;92.80;99445.59;4204417;83;21579;-82
2021/11/20 05:15:27;;;;;;;15.35;9.28;;;;;;;8.60;93.17;99446.59;4195637;83;21072;-82
2021/11/20 05:21:29;;;;;;;12.63;9.10;;;;;;;8.57;93.26;99453.32;4183549;83;21055;-81
2021/11/20 05:27:30;;;;;;;13.35;9.13;;;;;;;8.48;93.69;99448.05;4123970;84;21010;-82
2021/11/20 05:33:42;;;;;;;15.53;10.78;;;;;;;8.43;93.90;99454.31;4066997;85;21536;-84
2021/11/20 05:39:44;;;;;;;16.00;9.75;;;;;;;8.37;94.11;99447.53;4092606;85;21087;-82
2021/11/20 05:45:52;;;;;;;17.27;10.90;;;;;;;8.35;94.49;99464.84;4093569;85;21035;-82
2021/11/20 05:51:56;;;;;;;13.43;9.65;;;;;;;8.37;94.85;99473.44;4093292;85;21019;-82
2021/11/20 05:57:58;;;;;;;18.12;10.95;;;;;;;8.39;94.92;99481.52;4172913;83;21106;-82
2021/11/20 06:03:59;;;;;;;18.35;11.20;;;;;;;8.40;95.12;99481.73;4192081;83;21418;-82
2021/11/20 06:10:04;;;;;;;16.77;11.95;;;;;;;8.40;95.24;99506.28;4190214;83;21048;-82
2021/11/20 06:16:07;;;;;;;18.17;11.73;;;;;;;8.46;95.92;99506.25;4147569;83;21117;-85
2021/11/20 06:22:10;;;;;;;18.20;12.78;;;;;;;8.47;95.71;99500.23;4117246;85;21012;-83
2021/11/20 06:28:13;;;;;;;16.97;11.93;;;;;;;8.50;96.04;99504.42;4120461;85;21067;-83
2021/11/20 06:34:16;;;;;;;15.68;11.95;;;;;;;8.52;95.90;99519.86;4116777;85;21039;-84
2021/11/20 06:40:42;;;;;;;14.23;11.00;;;;;;;8.56;96.14;99526.78;4049042;86;21064;-85
2021/11/20 06:46:45;;;;;;;16.77;11.70;;;;;;;8.60;96.08;99541.30;4025267;87;21019;-83
2021/11/20 06:52:49;;;;;;;18.10;12.80;;;;;;;8.66;96.04;99541.30;4094626;85;21046;-83
2021/11/20 06:59:06;;;;;;;18.20;13.35;;;;;;;8.71;96.11;99543.20;4093683;85;21090;-83
2021/11/20 07:05:04;;;;;;;17.35;12.45;;;;;;;8.77;96.22;99560.91;4031517;87;21086;-83
2021/11/20 07:11:06;;;;;;;16.57;12.90;;;;;;;8.83;96.31;99566.33;4066223;86;21119;-84
2021/11/20 07:17:08;;;;;;;18.82;13.10;;;;;;;8.90;96.21;99587.56;4057580;86;21167;-84
2021/11/20 07:23:12;;;;;;;18.23;13.00;;;;;;;8.96;96.12;99590.26;4203085;83;21656;-82
2021/11/20 07:29:14;;;;;;;17.52;12.88;;;;;;;8.99;96.02;99582.77;4197075;83;21043;-83
2021/11/20 07:35:40;;;;;;;16.57;12.50;;;;;;;9.05;95.96;99575.89;4195612;83;21098;-84
2021/11/20 07:41:42;;;;;;;15.75;11.00;;;;;;;9.13;95.87;99586.64;4199825;83;21555;-84
2021/11/20 07:47:44;;;;;;;18.48;11.80;;;;;;;9.23;95.80;99588.06;4175515;83;21027;-83
2021/11/20 07:53:46;;;;;;;13.35;10.75;;;;;;;9.50;95.31;99583.90;4197174;83;21047;-84
2021/11/20 08:00:00;;;;;;;15.32;11.15;;;;;;;9.84;95.19;99591.11;4201388;83;21066;-83
2021/11/20 08:06:11;;;;;;;14.00;10.08;;;;;;;10.18;95.40;99589.79;4192853;83;21106;-84
2021/11/20 08:12:17;;;;;;;14.30;10.90;;;;;;;10.56;94.56;99590.40;4199052;83;21050;-85
2021/11/20 08:18:21;;;;;;;16.05;10.60;;;;;;;10.86;93.81;99585.35;4199620;83;21523;-82
2021/11/20 08:24:37;;;;;;;14.78;10.50;;;;;;;11.17;93.26;99582.97;4198158;83;21697;-85
2021/11/20 08:30:39;;;;;;;15.95;9.23;;;;;;;11.25;93.41;99572.92;4201543;83;21094;-84
2021/11/20 08:36:41;;;;;;;11.50;8.83;;;;;;;11.61;91.91;99581.95;4201109;83;21061;-84
2021/11/20 08:42:48;;;;;;;12.30;9.28;;;;;;;11.45;91.37;99584.83;4198353;83;21597;-84
2021/11/20 08:48:50;;;;;;;16.02;8.30;;;;;;;11.37;91.26;99589.20;4197664;83;20975;-83
2021/11/20 08:54:58;;;;;;;13.03;9.50;;;;;;;11.24;90.74;99597.39;4198053;83;21058;-84
2021/11/20 09:01:13;;;;;;;14.25;9.95;;;;;;;11.04;90.45;99584.29;4199681;82;21125;-85
2021/11/20 09:07:33;;;;;;;13.68;9.08;;;;;;;11.23;90.53;99591.10;4199747;83;21083;-84
2021/11/20 09:13:49;;;;;;;11.55;8.60;;;;;;;11.28;90.10;99574.93;4164131;83;21098;-84
2021/11/20 09:19:51;;;;;;;14.10;8.68;;;;;;;11.48;90.14;99574.50;4205908;83;21032;-83
2021/11/20 09:25:57;;;;;;;14.33;9.18;;;;;;;11.65;89.15;99581.48;4201406;83;21607;-84
2021/11/20 09:31:59;;;;;;;11.20;8.83;;;;;;;11.53;88.86;99585.73;4209217;82;21023;-85
2021/11/20 09:38:02;;;;;;;13.85;8.68;;;;;;;11.37;88.78;99576.27;4198477;83;21690;-83
2021/11/20 09:44:04;;;;;;;14.20;8.15;;;;;;;11.37;89.03;99575.50;4205989;83;21054;-85
2021/11/20 09:50:38;;;;;;;11.20;8.73;;;;;;;11.36;88.70;99571.96;4179506;83;21015;-83
2021/11/20 09:56:53;;;;;;;15.72;10.35;;;;;;;11.28;88.59;99572.99;4198403;83;21011;-84
2021/11/20 10:03:03;;;;;;;14.15;8.23;;;;;;;11.26;88.28;99572.56;4197912;82;21052;-84
2021/11/20 10:09:25;;;;;;;13.13;8.65;;;;;;;11.28;88.14;99570.82;4190685;83;21077;-84
2021/11/20 10:15:31;;;;;;;13.93;9.50;;;;;;;11.21;88.16;99552.90;4193356;83;21086;-85
2021/11/20 10:21:38;;;;;;;13.10;9.33;;;;;;;11.19;87.81;99545.61;4191917;83;21019;-84
2021/11/20 10:27:55;;;;;;;14.47;10.18;;;;;;;11.17;88.11;99548.72;4186559;83;21050;-83
2021/11/20 10:34:23;;;;;;;14.03;8.90;;;;;;;11.17;87.96;99545.18;4192134;83;21035;-85
2021/11/20 10:40:43;;;;;;;16.02;9.83;;;;;;;11.26;88.30;99541.04;4191751;83;21101;-83
2021/11/20 10:46:59;;;;;;;12.47;9.38;;;;;;;11.41;88.08;99544.25;4190855;83;21114;-85
2021/11/20 10:53:44;;;;;;;11.43;8.88;;;;;;;11.35;87.58;99535.33;4136743;84;21133;-83
2021/11/20 11:00:10;;;;;;;11.18;9.25;;;;;;;11.33;87.43;99527.47;4130894;84;21060;-84
2021/11/20 11:06:35;;;;;;;13.55;9.05;;;;;;;11.27;87.45;99515.80;4128687;84;21010;-83
2021/11/20 11:12:51;;;;;;;16.70;10.65;;;;;;;11.07;87.34;99511.76;4091359;85;21564;-85
2021/11/20 11:19:26;;;;;;;15.25;9.15;;;;;;;10.93;87.52;99509.38;4089490;85;21686;-85
2021/11/20 11:25:31;;;;;;;12.18;8.43;;;;;;;10.86;87.90;99507.86;4095232;85;21422;-85
2021/11/20 11:31:37;;;;;;;11.25;7.97;;;;;;;10.73;87.81;99523.67;4090648;85;21135;-84
2021/11/20 11:37:53;;;;;;;13.98;9.50;;;;;;;10.56;88.24;99515.91;4084236;85;21111;-85
2021/11/20 11:44:13;;;;;;;12.78;9.63;;;;;;;10.49;88.41;99512.25;4129189;84;21033;-84
2021/11/20 11:51:08;;;;;;;11.35;7.67;;;;;;;10.43;88.96;99509.60;4137818;84;21077;-85
2021/11/20 11:57:18;;;;;;;16.80;10.95;;;;;;;10.40;89.01;99506.19;4089246;85;21118;-84
2021/11/20 12:03:31;;;;;;;16.52;11.20;;;;;;;10.27;89.49;99502.03;4092968;85;21063;-85
2021/11/20 12:09:47;;;;;;;16.35;11.80;;;;;;;10.20;89.74;99484.09;4086786;85;21095;-85
2021/11/20 12:15:50;;;;;;;20.35;12.78;;;;;;;10.06;90.17;99477.73;4168927;83;21115;-83
2021/11/20 12:22:03;;;;;;;17.73;12.53;;;;;;;10.03;90.76;99465.34;4110471;85;21056;-84
2021/11/20 12:28:09;;;;;;;17.55;12.40;;;;;;;10.00;90.93;99451.03;4116256;85;21149;-85
2021/11/20 12:34:36;;;;;;;18.23;11.60;;;;;;;10.00;91.13;99445.55;4116313;85;21595;-84
2021/11/20 12:41:00;;;;;;;13.00;9.20;;;;;;;9.99;91.31;99437.92;4113397;85;21662;-84
2021/11/20 12:47:22;;;;;;;16.35;9.50;;;;;;;9.99;91.37;99435.18;4119126;85;21102;-84
2021/11/20 12:53:28;;;;;;;13.83;9.70;;;;;;;9.96;91.51;99426.93;4121246;85;21102;-84
2021/11/20 12:59:30;;;;;;;;;;;;;;;9.88;92.03;99425.20;4052442;85;21617;-83
2021/11/20 13:05:39;;;;;;;18.52;11.50;;;;;;;9.84;92.65;99417.48;4053989;86;20115;-83
2021/11/20 13:11:56;;;;;;;16.97;11.80;;;;;;;9.81;92.51;99411.37;4051584;86;21081;-84
2021/11/20 13:18:03;;;;;;;17.98;11.90;;;;;;;9.78;92.60;99406.05;4066158;86;21039;-84
2021/11/20 13:24:13;;;;;;;20.35;12.58;;;;;;;9.80;92.88;99402.95;4082540;86;21122;-84
2021/11/20 13:30:18;;;;;;;19.27;12.70;;;;;;;9.77;93.11;99396.84;4087012;85;21097;-83
2021/11/20 13:36:19;;;;;;;17.98;12.65;;;;;;;9.72;93.29;99400.66;4182195;83;21563;-85
2021/11/20 13:42:20;;;;;;;21.25;15.03;;;;;;;9.63;93.69;99404.19;4176809;83;21064;-84
2021/11/20 13:48:27;;;;;;;21.62;14.23;;;;;;;9.58;93.83;99400.93;4182760;83;22329;-84
2021/11/20 13:54:28;;;;;;;24.65;14.15;;;;;;;9.56;94.31;99401.29;4181944;83;21050;-84
2021/11/20 14:00:30;;;;;;;24.85;15.30;;;;;;;9.49;94.27;99388.26;4179471;83;21047;-84
2021/11/20 14:06:32;;;;;;;30.43;18.73;;;;;;;9.44;94.50;99388.53;4184244;83;21058;-84
2021/11/20 14:12:51;;;;;;;32.85;20.72;;;;;;;9.39;94.72;99383.37;4183339;83;21062;-84
2021/11/20 14:18:47;;;;;;;29.45;19.70;;;;;;;9.37;94.83;99374.73;4142754;83;21083;-85
2021/11/20 14:24:49;;;;;;;39.58;20.92;;;;;;;9.33;95.28;99383.41;4122638;85;22098;-85
2021/11/20 14:30:52;;;;;;;35.63;23.12;;;;;;;9.30;95.31;99388.81;4123060;85;21075;-85
2021/11/20 14:36:53;;;;;;;33.73;25.25;;;;;;;9.28;95.36;99380.98;4125831;85;21055;-84
2021/11/20 14:42:55;;;;;;;38.28;24.85;;;;;;;9.29;95.49;99377.66;4119470;85;21055;-84
2021/11/20 14:49:06;;;;;;;32.88;21.77;;;;;;;9.25;95.73;99377.59;4121571;85;21015;-85
2021/11/20 14:55:08;;;;;;;30.90;19.95;;;;;;;9.26;95.84;99377.00;4117661;85;21091;-85
2021/11/20 15:01:10;;;;;;;26.93;18.35;;;;;;;9.25;95.67;99380.89;4120218;85;21095;-83
2021/11/20 15:07:12;;;;;;;29.15;17.42;;;;;;;9.24;95.70;99369.73;4123821;85;21012;-84
2021/11/20 15:13:14;;;;;;;24.65;15.03;;;;;;;9.25;95.65;99369.97;4100321;85;21086;-83
2021/11/20 15:19:18;;;;;;;25.20;16.57;;;;;;;9.24;95.73;99368.36;4075577;86;21528;-84
2021/11/20 15:25:21;;;;;;;25.45;15.20;;;;;;;9.27;95.73;99362.22;4079211;86;21075;-84
2021/11/20 15:31:22;;;;;;;21.10;12.07;;;;;;;9.27;95.89;99356.16;4054008;86;21092;-83
2021/11/20 15:37:25;;;;;;;21.37;13.68;;;;;;;9.25;95.81;99346.19;4199962;83;21114;-84
2021/11/20 15:43:28;;;;;;;18.73;13.48;;;;;;;9.23;95.68;99343.01;4197155;83;21082;-83
2021/11/20 15:49:29;;;;;;;24.87;14.10;;;;;;;9.20;95.73;99332.80;4196927;83;21500;-84
2021/11/20 15:55:31;;;;;;;19.62;12.55;;;;;;;9.20;95.73;99330.63;4193164;83;21196;-84
2021/11/20 16:01:32;;;;;;;32.67;17.27;;;;;;;9.19;95.77;99321.64;4195157;83;21092;-84
2021/11/20 16:07:34;;;;;;;28.57;17.62;;;;;;;9.15;95.73;99311.22;4201571;83;21109;-84
2021/11/20 16:13:43;;;;;;;23.00;14.60;;;;;;;9.15;95.76;99311.22;4192961;83;21447;-84
2021/11/20 16:19:44;;;;;;;26.10;15.53;;;;;;;9.15;95.92;99299.50;4197734;83;21055;-84
2021/11/20 16:25:46;;;;;;;23.45;14.58;;;;;;;9.13;95.87;99290.89;4192491;83;21706;-84
2021/11/20 16:31:47;;;;;;;21.50;13.03;;;;;;;9.14;95.89;99289.73;4198848;82;21459;-83
2021/11/20 16:37:49;;;;;;;23.62;14.45;;;;;;;9.14;95.77;99287.80;4195685;83;21626;-84
2021/11/20 16:43:51;;;;;;;25.05;14.15;;;;;;;9.13;95.76;99283.47;4199964;83;21606;-83
2021/11/20 16:49:53;;;;;;;21.82;13.65;;;;;;;9.11;95.74;99280.89;4199721;83;21047;-84
2021/11/20 16:55:54;;;;;;;20.15;12.10;;;;;;;9.09;95.67;99273.05;4199563;83;21039;-85
2021/11/20 17:02:00;;;;;;;16.23;10.70;;;;;;;9.08;95.79;99266.59;4202186;83;21525;-84
2021/11/20 17:08:03;;;;;;;;;;;;;;;9.06;95.63;99254.66;4204153;83;21071;-86
2021/11/20 17:14:05;;;;;;;25.10;13.10;;;;;;;9.04;95.58;99239.77;4202114;83;20127;-84
2021/11/20 17:20:10;;;;;;;25.12;13.93;;;;;;;9.05;95.60;99226.34;4203894;83;22021;-86
2021/11/20 17:26:12;;;;;;;24.75;12.93;;;;;;;9.08;95.43;99218.80;4202129;83;22407;-84
2021/11/20 17:32:13;;;;;;;26.50;12.68;;;;;;;9.10;95.37;99213.18;4199694;83;21074;-85
2021/11/20 17:38:15;;;;;;;23.65;12.50;;;;;;;9.09;95.29;99212.98;4078998;83;10000061;-84
2021/11/20 17:44:17;;;;;;;26.55;14.78;;;;;;;9.08;95.23;99205.91;4203198;83;21615;-84
2021/11/20 17:50:18;;;;;;;27.40;15.93;;;;;;;9.04;95.27;99190.05;4195597;83;22278;-84
2021/11/20 17:56:20;;;;;;;30.48;15.70;;;;;;;9.07;95.29;99189.33;4199538;83;21586;-83
2021/11/20 18:02:21;;;;;;;28.80;15.90;;;;;;;9.07;95.23;99180.33;4201182;83;21023;-83
2021/11/20 18:08:23;;;;;;;34.88;19.23;;;;;;;9.07;95.21;99170.21;4195660;83;21019;-83
2021/11/20 18:14:25;;;;;;;47.67;26.23;;;;;;;9.06;95.22;99176.03;4201345;83;21015;-84
2021/11/20 18:20:27;;;;;;;49.42;28.75;;;;;;;9.06;95.16;99174.66;4204837;83;21043;-83
2021/11/20 18:26:29;;;;;;;46.70;26.35;;;;;;;9.03;95.16;99171.30;4196649;83;21031;-83
2021/11/20 18:32:30;;;;;;;51.05;28.55;;;;;;;9.00;95.20;99168.72;4199637;83;21516;-85
2021/11/20 18:38:32;;;;;;;45.15;29.12;;;;;;;9.00;95.26;99170.65;4196388;83;21504;-84
2021/11/20 18:44:33;;;;;;;50.78;29.50;;;;;;;8.96;95.35;99161.02;4196482;83;21015;-84
2021/11/20 18:50:35;;;;;;;55.35;32.38;;;;;;;8.97;95.40;99154.39;4198772;83;21409;-83
2021/11/20 18:56:37;;;;;;;57.45;33.50;;;;;;;8.97;95.40;99145.44;4200351;83;21059;-84
2021/11/20 19:02:38;;;;;;;56.70;35.17;;;;;;;8.98;95.48;99147.00;4193737;83;21027;-84
2021/11/20 19:08:41;;;;;;;53.63;32.67;;;;;;;8.97;95.53;99146.20;4079899;83;9999833;-85
2021/11/20 19:14:43;;;;;;;64.85;36.03;;;;;;;8.98;95.49;99140.17;4203354;83;21059;-84
2021/11/20 19:20:44;;;;;;;62.30;38.30;;;;;;;8.98;95.59;99140.17;4192508;83;21042;-83
2021/11/20 19:26:46;;;;;;;66.33;37.03;;;;;;;8.98;95.62;99136.08;4192850;83;21022;-83
2021/11/20 19:32:48;;;;;;;62.27;39.03;;;;;;;8.97;95.66;99131.19;4188246;83;21058;-84
2021/11/20 19:38:50;;;;;;;62.50;37.65;;;;;;;8.98;95.65;99132.78;4189047;83;21015;-83
2021/11/20 19:44:52;;;;;;;60.35;36.83;;;;;;;8.97;95.69;99118.13;4194103;83;20980;-84
2021/11/20 19:50:54;;;;;;;63.10;37.73;;;;;;;8.97;95.66;99118.13;4182966;83;21023;-83
2021/11/20 19:56:59;;;;;;;61.98;37.23;;;;;;;8.95;95.65;99108.94;4196879;84;21437;-83
2021/11/20 20:03:00;;;;;;;60.83;35.05;;;;;;;8.94;95.68;99107.34;4060239;86;21616;-84
2021/11/20 20:09:04;;;;;;;56.77;35.43;;;;;;;8.95;95.72;99102.11;4088013;85;21022;-84
2021/11/20 20:15:07;;;;;;;56.88;33.30;;;;;;;8.94;95.65;99099.14;4187210;82;21054;-84
2021/11/20 20:21:10;;;;;;;53.17;32.20;;;;;;;8.94;95.57;99091.55;4186209;83;21024;-84
2021/11/20 20:27:11;;;;;;;52.00;30.52;;;;;;;8.95;95.59;99089.03;4188874;83;21031;-85
2021/11/20 20:33:16;;;;;;;50.08;30.45;;;;;;;8.95;95.52;99078.11;4189528;83;20975;-84
2021/11/20 20:39:21;;;;;;;45.45;27.10;;;;;;;8.95;95.50;99080.83;4186668;83;21051;-83
2021/11/20 20:45:23;;;;;;;40.45;23.50;;;;;;;8.95;95.39;99078.11;4180802;83;21607;-86
2021/11/20 20:51:25;;;;;;;32.10;22.50;;;;;;;8.96;95.26;99076.38;4127102;84;21109;-84
2021/11/20 20:57:27;;;;;;;29.60;19.73;;;;;;;8.96;95.15;99072.84;4067344;86;21018;-83
2021/11/20 21:03:28;;;;;;;32.33;20.30;;;;;;;8.97;95.04;99065.66;4132263;84;21625;-83
2021/11/20 21:09:30;;;;;;;28.10;19.35;;;;;;;8.98;94.91;99063.16;4089666;85;21159;-83
2021/11/20 21:15:32;;;;;;;29.87;16.93;;;;;;;8.99;94.80;99064.73;4091570;85;21642;-84
2021/11/20 21:27:59;;;;;;;23.70;14.38;;;;;;;8.97;94.57;99050.64;4076713;86;21049;-84
2021/11/20 21:34:01;;;;;;;16.42;12.37;;;;;;;8.98;94.48;99040.52;4076676;87;21790;-84
2021/11/20 21:40:04;;;;;;;18.42;12.65;;;;;;;9.00;94.13;99036.86;3935651;86;10000137;-83
2021/11/20 21:46:05;;;;;;;20.50;12.73;;;;;;;9.01;94.06;99035.13;4073015;86;21556;-84
2021/11/20 21:52:11;;;;;;;18.32;12.70;;;;;;;9.01;93.85;99036.50;4074398;86;21067;-84
2021/11/20 21:58:12;;;;;;;26.97;16.52;;;;;;;9.03;93.72;99023.27;4072830;86;21614;-84
2021/11/20 22:04:14;;;;;;;24.35;15.32;;;;;;;9.05;93.59;99020.18;4076354;86;21174;-83
2021/11/20 22:10:15;;;;;;;23.45;14.30;;;;;;;9.05;93.42;99015.48;4074763;86;21054;-84
2021/11/20 22:16:17;;;;;;;18.92;12.68;;;;;;;9.04;93.30;98999.47;4081762;86;21101;-84
2021/11/20 22:22:19;;;;;;;19.32;13.08;;;;;;;9.03;93.20;98993.23;4079409;85;21075;-83
2021/11/20 22:28:20;;;;;;;25.62;14.47;;;;;;;8.99;93.24;98985.55;4082737;86;21095;-83
2021/11/20 22:34:21;;;;;;;21.07;13.75;;;;;;;8.97;93.07;98974.20;4064021;86;21133;-84
2021/11/20 22:40:24;;;;;;;25.27;15.58;;;;;;;8.96;93.13;98965.80;4201825;83;21037;-84
2021/11/20 22:46:26;;;;;;;22.98;14.50;;;;;;;8.97;92.91;98964.64;4196793;82;21081;-83
2021/11/20 22:52:28;;;;;;;21.05;13.95;;;;;;;8.98;92.85;98951.78;4202105;83;21004;-84
2021/11/20 22:58:29;;;;;;;26.17;15.93;;;;;;;9.00;92.50;98952.22;4199936;83;21573;-84
2021/11/20 23:04:31;;;;;;;26.42;15.05;;;;;;;8.98;92.55;98937.56;4202320;83;21547;-84
2021/11/20 23:10:33;;;;;;;27.07;15.53;;;;;;;8.99;92.37;98936.41;4202139;83;21072;-83
2021/11/20 23:16:34;;;;;;;24.82;14.15;;;;;;;8.97;92.42;98929.14;4198297;83;21590;-84
2021/11/20 23:22:36;;;;;;;22.90;14.35;;;;;;;8.96;92.26;98913.93;4082330;86;21110;-84
2021/11/20 23:28:40;;;;;;;27.50;15.48;;;;;;;8.96;92.25;98911.77;4084483;86;21090;-83
2021/11/20 23:34:42;;;;;;;22.82;14.28;;;;;;;8.95;92.21;98903.37;4081320;86;21147;-84
2021/11/20 23:40:44;;;;;;;25.88;15.93;;;;;;;8.94;92.02;98897.72;4081523;86;21158;-85
2021/11/20 23:46:45;;;;;;;22.22;12.47;;;;;;;8.93;91.60;98893.39;4079224;86;21035;-84
2021/11/20 23:52:46;;;;;;;23.50;13.32;;;;;;;8.92;91.87;98892.62;4083637;86;21067;-84
2021/11/20 23:58:48;;;;;;;20.88;13.00;;;;;;;8.90;91.94;98893.55;4082648;86;21804;-84
